Time;durP1;ratioP1;P1;durP2;ratioP2;P2;SDS_P1;SDS_P2;PMS_P1;PMS_P2;Temp;Humidity;BMP_temperature;BMP_pressure;BME280_temperature;BME280_humidity;BME280_pressure;Samples;Min_cycle;Max_cycle;Signal;HPM_P1;HPM_P2
2021/09/10 00:01:37;;;;;;;2.73;1.83;;;20.10;64.70;;;;;;5030888;28;20276;-72
2021/09/10 00:04:04;;;;;;;1.00;1.00;;;20.10;65.00;;;;;;5044369;28;20219;-72
2021/09/10 00:06:32;;;;;;;1.17;0.93;;;20.00;65.10;;;;;;5045903;28;20522;-72
2021/09/10 00:08:59;;;;;;;4.60;1.23;;;20.00;65.10;;;;;;5043195;28;20222;-72
2021/09/10 00:11:26;;;;;;;1.47;1.07;;;19.90;65.00;;;;;;5046201;28;20253;-72
2021/09/10 00:13:53;;;;;;;1.73;1.63;;;19.80;65.00;;;;;;5037345;28;20325;-72
2021/09/10 00:16:20;;;;;;;1.53;1.43;;;19.80;65.20;;;;;;5035540;28;20226;-72
2021/09/10 00:18:48;;;;;;;0.83;0.83;;;19.80;65.40;;;;;;5045749;28;20225;-72
2021/09/10 00:21:15;;;;;;;1.13;1.13;;;19.70;65.40;;;;;;5034163;28;20264;-72
2021/09/10 00:23:43;;;;;;;2.87;1.93;;;19.70;65.60;;;;;;5046961;28;20274;-71
2021/09/10 00:26:09;;;;;;;1.53;1.07;;;19.70;65.80;;;;;;5043368;28;20272;-71
2021/09/10 00:28:37;;;;;;;2.17;2.00;;;19.60;66.10;;;;;;5046036;28;20573;-71
2021/09/10 00:31:04;;;;;;;1.17;1.07;;;19.60;66.30;;;;;;5042403;28;20226;-71
2021/09/10 00:33:31;;;;;;;1.40;0.87;;;19.60;66.40;;;;;;5046251;28;20230;-71
2021/09/10 00:35:59;;;;;;;1.07;0.97;;;19.50;66.30;;;;;;5043656;28;20226;-71
2021/09/10 00:38:26;;;;;;;1.50;1.40;;;19.50;66.30;;;;;;5034741;28;20654;-72
2021/09/10 00:40:53;;;;;;;2.33;1.03;;;19.50;66.40;;;;;;5046517;28;20654;-72
2021/09/10 00:43:20;;;;;;;1.47;0.93;;;19.40;66.50;;;;;;5044220;28;20206;-72
2021/09/10 00:45:48;;;;;;;1.53;1.33;;;19.40;66.60;;;;;;5014095;28;20513;-72
2021/09/10 00:48:19;;;;;;;1.27;1.17;;;19.40;66.80;;;;;;5029821;28;20218;-72
2021/09/10 00:50:49;;;;;;;0.80;0.80;;;19.30;66.80;;;;;;5005339;28;20212;-72
2021/09/10 00:53:17;;;;;;;1.90;0.97;;;19.30;66.90;;;;;;5026646;28;20238;-71
2021/09/10 00:55:48;;;;;;;3.03;1.47;;;19.30;66.90;;;;;;5020828;28;20204;-71
2021/09/10 00:58:16;;;;;;;0.60;0.60;;;19.30;66.90;;;;;;5025410;28;20265;-72
2021/09/10 01:00:44;;;;;;;5.07;2.27;;;19.30;67.00;;;;;;5025223;28;20212;-72
2021/09/10 01:03:12;;;;;;;1.00;1.00;;;19.30;67.10;;;;;;5023036;28;20218;-72
2021/09/10 01:05:43;;;;;;;0.93;0.93;;;19.20;67.20;;;;;;5025251;28;20269;-71
2021/09/10 01:08:12;;;;;;;0.93;0.93;;;19.20;68.10;;;;;;5008008;28;20456;-71
2021/09/10 01:10:40;;;;;;;3.33;2.33;;;19.20;67.50;;;;;;5022951;28;20219;-71
2021/09/10 01:13:09;;;;;;;1.13;1.03;;;19.20;67.70;;;;;;5026008;28;20297;-71
2021/09/10 01:15:37;;;;;;;1.77;1.63;;;19.20;68.10;;;;;;5022685;28;20212;-72
2021/09/10 01:18:05;;;;;;;7.83;1.47;;;19.00;68.10;;;;;;5006420;28;20216;-72
2021/09/10 01:20:32;;;;;;;1.27;1.00;;;19.00;68.30;;;;;;5025944;28;20218;-72
2021/09/10 01:22:59;;;;;;;3.33;1.53;;;18.90;68.40;;;;;;5021798;28;20223;-72
2021/09/10 01:25:26;;;;;;;2.33;1.17;;;18.80;69.20;;;;;;5024253;28;20549;-71
2021/09/10 01:27:56;;;;;;;1.67;1.57;;;18.80;68.70;;;;;;5024843;28;20307;-71
2021/09/10 01:30:26;;;;;;;1.57;1.43;;;18.80;68.90;;;;;;5026790;28;20214;-71
2021/09/10 01:32:53;;;;;;;0.80;0.80;;;18.70;68.20;;;;;;5023310;28;20243;-72
2021/09/10 01:35:21;;;;;;;0.73;0.73;;;18.60;68.10;;;;;;5014868;28;20215;-72
2021/09/10 01:37:48;;;;;;;1.00;1.00;;;18.60;68.20;;;;;;5025163;28;20211;-72
2021/09/10 01:40:15;;;;;;;1.20;1.10;;;18.60;68.20;;;;;;5022444;28;20216;-72
2021/09/10 01:42:43;;;;;;;0.53;0.53;;;18.60;68.20;;;;;;5021477;28;20207;-72
2021/09/10 01:45:12;;;;;;;1.03;1.03;;;18.60;68.10;;;;;;5024276;28;20292;-72
2021/09/10 01:47:40;;;;;;;1.63;0.80;;;18.60;67.90;;;;;;5025178;28;20242;-72
2021/09/10 01:50:10;;;;;;;1.03;1.03;;;18.60;68.50;;;;;;5025372;28;20218;-72
2021/09/10 01:52:38;;;;;;;0.33;0.33;;;18.60;67.80;;;;;;5023856;28;20422;-72
2021/09/10 01:55:08;;;;;;;0.40;0.40;;;18.60;67.70;;;;;;5023794;28;20215;-72
2021/09/10 01:57:35;;;;;;;1.37;1.20;;;18.60;67.70;;;;;;5024565;28;20211;-72
2021/09/10 02:00:04;;;;;;;1.23;1.13;;;18.50;67.60;;;;;;5021921;28;20222;-72
2021/09/10 02:02:31;;;;;;;1.47;1.27;;;18.50;67.50;;;;;;5021305;28;20218;-72
2021/09/10 02:04:58;;;;;;;1.00;0.90;;;18.50;67.60;;;;;;5024084;28;20244;-72
2021/09/10 02:07:25;;;;;;;0.90;0.90;;;18.40;67.60;;;;;;5022312;28;20211;-71
2021/09/10 02:09:52;;;;;;;0.90;0.90;;;18.30;67.70;;;;;;5007864;28;20211;-71
2021/09/10 02:12:19;;;;;;;0.97;0.57;;;18.30;67.80;;;;;;5022091;28;20223;-71
2021/09/10 02:14:46;;;;;;;1.23;1.17;;;18.30;67.70;;;;;;5024049;28;20235;-71
2021/09/10 02:17:13;;;;;;;1.20;1.10;;;18.20;67.60;;;;;;5009049;28;20207;-71
2021/09/10 02:19:41;;;;;;;0.63;0.63;;;18.20;67.70;;;;;;5028919;28;20277;-71
2021/09/10 02:22:08;;;;;;;3.40;1.70;;;18.10;67.70;;;;;;5024970;28;20265;-71
2021/09/10 02:24:35;;;;;;;0.37;0.37;;;18.10;67.70;;;;;;5021955;28;20230;-71
2021/09/10 02:27:03;;;;;;;1.03;1.03;;;18.10;67.50;;;;;;5024588;28;20266;-71
2021/09/10 02:29:31;;;;;;;3.80;1.53;;;18.10;67.50;;;;;;5021995;28;20245;-71
2021/09/10 02:31:58;;;;;;;1.60;1.37;;;18.10;67.40;;;;;;5021105;28;20277;-71
2021/09/10 02:34:25;;;;;;;1.10;0.90;;;18.10;67.40;;;;;;5024725;28;20577;-71
2021/09/10 02:36:53;;;;;;;1.53;1.43;;;18.10;67.40;;;;;;5025403;28;20219;-71
2021/09/10 02:39:20;;;;;;;0.50;0.50;;;18.00;67.50;;;;;;5022569;28;20255;-71
2021/09/10 02:41:47;;;;;;;1.40;1.30;;;18.00;67.80;;;;;;5023986;28;20210;-71
2021/09/10 02:44:14;;;;;;;1.23;1.17;;;17.90;67.90;;;;;;5012934;28;20258;-71
2021/09/10 02:46:42;;;;;;;0.90;0.83;;;17.90;68.00;;;;;;5018004;28;20279;-71
2021/09/10 02:49:09;;;;;;;0.30;0.27;;;17.90;67.80;;;;;;5023182;28;20651;-71
2021/09/10 02:51:36;;;;;;;0.50;0.50;;;17.90;67.80;;;;;;5022686;28;20289;-71
2021/09/10 02:54:03;;;;;;;0.40;0.40;;;17.80;67.90;;;;;;5024493;28;20239;-71
2021/09/10 02:56:29;;;;;;;1.57;1.47;;;17.80;68.00;;;;;;5022799;28;20234;-71
2021/09/10 02:58:57;;;;;;;3.23;2.10;;;17.70;68.10;;;;;;5023227;28;20242;-71
2021/09/10 03:01:24;;;;;;;1.40;0.80;;;17.70;68.20;;;;;;5008824;28;20207;-72
2021/09/10 03:03:52;;;;;;;0.57;0.57;;;17.70;68.60;;;;;;5011768;28;20536;-71
2021/09/10 03:06:19;;;;;;;1.00;1.00;;;17.60;69.00;;;;;;5025466;28;20216;-72
2021/09/10 03:08:46;;;;;;;1.20;1.17;;;17.60;69.40;;;;;;5008369;28;20219;-72
2021/09/10 03:11:13;;;;;;;0.47;0.47;;;17.50;69.40;;;;;;5029193;28;20358;-72
2021/09/10 03:13:40;;;;;;;0.40;0.40;;;17.40;69.60;;;;;;5025551;28;20251;-71
2021/09/10 03:16:07;;;;;;;1.03;1.00;;;17.40;70.10;;;;;;5016715;28;20220;-71
2021/09/10 03:18:34;;;;;;;1.10;0.97;;;17.30;70.80;;;;;;5028800;28;20210;-72
2021/09/10 03:21:01;;;;;;;3.47;2.53;;;17.30;71.30;;;;;;5026668;28;20218;-72
2021/09/10 03:23:28;;;;;;;1.73;1.60;;;17.40;71.50;;;;;;5017308;28;20219;-72
2021/09/10 03:25:57;;;;;;;2.57;2.10;;;17.40;71.50;;;;;;5028307;28;20210;-72
2021/09/10 03:28:24;;;;;;;1.10;1.07;;;17.50;71.40;;;;;;5024813;28;20662;-71
2021/09/10 03:30:51;;;;;;;0.30;0.30;;;17.60;71.80;;;;;;5026201;28;20211;-71
2021/09/10 03:33:18;;;;;;;3.23;1.53;;;17.60;70.90;;;;;;5023441;28;20215;-71
2021/09/10 03:35:45;;;;;;;1.60;1.27;;;17.60;70.70;;;;;;5020621;28;20258;-71
2021/09/10 03:38:12;;;;;;;7.40;1.63;;;17.60;70.40;;;;;;5026852;28;20211;-71
2021/09/10 03:40:39;;;;;;;0.80;0.80;;;17.60;70.30;;;;;;5024691;28;20875;-72
2021/09/10 03:43:08;;;;;;;1.17;1.17;;;17.50;70.30;;;;;;5026221;28;20284;-71
2021/09/10 03:45:35;;;;;;;1.20;1.10;;;17.50;70.40;;;;;;5026344;28;20239;-71
2021/09/10 03:48:03;;;;;;;1.70;1.27;;;17.40;70.50;;;;;;5027260;28;20685;-71
2021/09/10 03:50:29;;;;;;;1.10;1.10;;;17.40;70.90;;;;;;5027154;28;20211;-71
2021/09/10 03:52:56;;;;;;;1.77;1.67;;;17.30;71.20;;;;;;5025260;28;20258;-71
2021/09/10 03:55:24;;;;;;;0.93;0.90;;;17.20;71.50;;;;;;5025061;28;20308;-71
2021/09/10 03:57:51;;;;;;;0.73;0.73;;;17.20;71.70;;;;;;5026837;28;20227;-71
2021/09/10 04:00:18;;;;;;;1.07;1.03;;;17.20;71.80;;;;;;5025859;28;20214;-71
2021/09/10 04:02:45;;;;;;;2.83;1.40;;;17.20;71.90;;;;;;5023764;28;20219;-71
2021/09/10 04:05:13;;;;;;;1.00;1.00;;;17.20;72.00;;;;;;5025779;28;20215;-71
2021/09/10 04:07:40;;;;;;;0.90;0.90;;;17.20;72.30;;;;;;5024386;28;20219;-71
2021/09/10 04:10:07;;;;;;;2.00;1.73;;;17.10;72.60;;;;;;5027056;28;20226;-71
2021/09/10 04:12:34;;;;;;;1.77;1.67;;;17.00;72.40;;;;;;5024548;28;20222;-71
2021/09/10 04:15:02;;;;;;;6.60;2.20;;;16.90;72.50;;;;;;5025218;28;20320;-71
2021/09/10 04:17:28;;;;;;;1.40;1.03;;;16.90;73.00;;;;;;5025328;28;20215;-71
2021/09/10 04:19:55;;;;;;;2.10;1.67;;;16.90;73.10;;;;;;5024168;28;20226;-71
2021/09/10 04:22:22;;;;;;;1.83;1.73;;;16.90;73.20;;;;;;5029190;28;20272;-71
2021/09/10 04:24:49;;;;;;;3.60;1.20;;;17.00;74.00;;;;;;5024309;28;20208;-71
2021/09/10 04:27:16;;;;;;;19.83;2.90;;;17.00;73.90;;;;;;5015272;28;20662;-71
2021/09/10 04:29:43;;;;;;;2.87;2.67;;;17.00;73.80;;;;;;5017312;28;20242;-71
2021/09/10 04:32:10;;;;;;;1.47;1.37;;;17.00;73.70;;;;;;5022529;28;20652;-71
2021/09/10 04:34:37;;;;;;;2.93;1.57;;;17.00;73.80;;;;;;5023688;28;20549;-71
2021/09/10 04:37:06;;;;;;;1.80;1.70;;;17.00;73.70;;;;;;5008250;28;20207;-71
2021/09/10 04:39:33;;;;;;;1.93;1.80;;;17.10;73.60;;;;;;5025833;28;20243;-71
2021/09/10 04:42:00;;;;;;;2.43;2.23;;;17.10;73.50;;;;;;5023512;28;20604;-72
2021/09/10 04:44:28;;;;;;;1.73;0.90;;;17.00;73.50;;;;;;5026599;28;20254;-72
2021/09/10 04:46:55;;;;;;;4.67;2.63;;;17.00;73.60;;;;;;5023936;28;20265;-72
2021/09/10 04:49:22;;;;;;;0.97;0.93;;;17.00;73.80;;;;;;5024013;28;20238;-71
2021/09/10 04:51:49;;;;;;;1.40;1.17;;;17.00;73.80;;;;;;5016962;28;20219;-71
2021/09/10 04:54:16;;;;;;;8.40;2.97;;;17.00;73.80;;;;;;5023157;28;20235;-71
2021/09/10 04:56:45;;;;;;;1.30;0.83;;;17.00;73.70;;;;;;5016142;28;20277;-71
2021/09/10 04:59:13;;;;;;;0.47;0.47;;;17.00;73.60;;;;;;5024977;28;20254;-72
2021/09/10 05:01:41;;;;;;;0.70;0.67;;;17.00;73.50;;;;;;5022686;28;20215;-72
2021/09/10 05:04:08;;;;;;;0.87;0.87;;;17.00;73.50;;;;;;5023350;28;20219;-71
2021/09/10 05:06:36;;;;;;;0.67;0.67;;;17.10;73.50;;;;;;5016067;28;20664;-71
2021/09/10 05:09:03;;;;;;;3.03;1.87;;;17.10;73.50;;;;;;5007336;28;20216;-71
2021/09/10 05:11:31;;;;;;;1.63;1.57;;;17.10;73.50;;;;;;5024310;28;20670;-71
2021/09/10 05:13:58;;;;;;;3.03;1.50;;;17.10;73.50;;;;;;5026213;28;20565;-71
2021/09/10 05:16:25;;;;;;;0.40;0.40;;;17.10;73.50;;;;;;5014016;28;20646;-72
2021/09/10 05:18:52;;;;;;;1.13;1.03;;;17.10;73.50;;;;;;5014659;28;20212;-72
2021/09/10 05:21:19;;;;;;;3.27;1.70;;;17.20;73.50;;;;;;5014661;28;20211;-71
2021/09/10 05:23:46;;;;;;;3.03;2.00;;;17.40;73.10;;;;;;5014999;28;20216;-71
2021/09/10 05:26:14;;;;;;;5.47;1.53;;;17.50;72.80;;;;;;5006976;28;20204;-71
2021/09/10 05:28:41;;;;;;;1.70;1.60;;;17.70;72.50;;;;;;5014005;28;20220;-71
2021/09/10 05:31:08;;;;;;;0.83;0.53;;;17.80;72.10;;;;;;5019614;28;20208;-71
2021/09/10 05:33:35;;;;;;;1.00;1.00;;;17.90;71.90;;;;;;5023271;28;20207;-71
2021/09/10 05:36:02;;;;;;;2.40;2.30;;;18.00;71.70;;;;;;5016172;28;20750;-71
2021/09/10 05:38:29;;;;;;;4.13;2.27;;;18.10;71.50;;;;;;5014250;28;20224;-71
2021/09/10 05:40:56;;;;;;;16.63;1.63;;;18.20;71.20;;;;;;5013882;28;20216;-72
2021/09/10 05:43:24;;;;;;;2.40;1.27;;;18.40;71.00;;;;;;5003380;28;20230;-72
2021/09/10 05:45:50;;;;;;;1.23;0.90;;;18.60;70.80;;;;;;5013571;28;20230;-72
2021/09/10 05:48:20;;;;;;;4.97;2.40;;;18.70;70.40;;;;;;5025516;28;20273;-72
2021/09/10 05:50:48;;;;;;;1.27;0.80;;;18.90;70.10;;;;;;5022075;28;20216;-72
2021/09/10 05:53:16;;;;;;;1.73;1.53;;;19.00;69.80;;;;;;5023273;28;20272;-72
2021/09/10 05:55:44;;;;;;;1.67;1.57;;;19.20;69.60;;;;;;5024051;28;20234;-72
2021/09/10 05:58:11;;;;;;;1.87;1.77;;;19.30;69.40;;;;;;5021388;28;20219;-72
2021/09/10 06:00:39;;;;;;;0.90;0.87;;;19.50;69.20;;;;;;5020364;28;20298;-72
2021/09/10 06:03:06;;;;;;;1.90;1.80;;;19.70;68.90;;;;;;5023027;28;20207;-72
2021/09/10 06:05:34;;;;;;;0.83;0.83;;;19.90;68.60;;;;;;5004704;28;20222;-72
2021/09/10 06:08:01;;;;;;;0.60;0.60;;;20.10;68.10;;;;;;5024781;28;20246;-72
2021/09/10 06:10:28;;;;;;;2.30;2.10;;;20.30;67.30;;;;;;5021545;28;20219;-72
2021/09/10 06:12:55;;;;;;;1.40;1.30;;;20.50;66.70;;;;;;5022575;28;20222;-72
2021/09/10 06:15:22;;;;;;;1.47;1.37;;;20.70;66.10;;;;;;5025207;28;20231;-72
2021/09/10 06:17:49;;;;;;;5.70;1.40;;;20.90;65.40;;;;;;5021941;28;20230;-72
2021/09/10 06:20:17;;;;;;;1.30;1.20;;;21.10;64.60;;;;;;5012828;28;20639;-72
2021/09/10 06:22:44;;;;;;;0.60;0.60;;;21.30;63.90;;;;;;5013637;28;20215;-72
2021/09/10 06:25:12;;;;;;;1.77;1.67;;;21.40;63.20;;;;;;5004304;28;20237;-72
2021/09/10 06:27:39;;;;;;;2.30;1.20;;;21.60;62.40;;;;;;5006769;28;20281;-72
2021/09/10 06:30:07;;;;;;;1.43;1.33;;;21.60;61.60;;;;;;5013662;28;20219;-72
2021/09/10 06:32:34;;;;;;;1.03;1.03;;;21.70;61.30;;;;;;5007012;28;20226;-72
2021/09/10 06:35:02;;;;;;;2.90;1.27;;;21.80;60.60;;;;;;5005194;28;20243;-72
2021/09/10 06:37:30;;;;;;;1.33;0.90;;;21.90;60.00;;;;;;5021735;28;20211;-72
2021/09/10 06:39:57;;;;;;;0.93;0.93;;;21.90;59.50;;;;;;5024129;28;20639;-72
2021/09/10 06:42:24;;;;;;;0.83;0.83;;;21.90;59.30;;;;;;5021000;28;20266;-72
2021/09/10 06:44:54;;;;;;;1.37;1.27;;;22.00;59.10;;;;;;5018335;28;20303;-73
2021/09/10 06:47:21;;;;;;;0.87;0.87;;;22.10;58.90;;;;;;5044757;28;20922;-72
2021/09/10 06:49:48;;;;;;;3.10;2.40;;;22.10;58.60;;;;;;5041325;28;20214;-72
2021/09/10 06:52:17;;;;;;;1.00;1.00;;;22.20;58.30;;;;;;5043905;28;20218;-71
2021/09/10 06:54:44;;;;;;;2.87;1.67;;;22.20;57.90;;;;;;5033964;28;20305;-71
2021/09/10 06:57:11;;;;;;;1.00;1.00;;;22.30;57.60;;;;;;5042418;28;20218;-70
2021/09/10 06:59:38;;;;;;;2.73;1.00;;;22.40;57.40;;;;;;5044391;28;20244;-72
2021/09/10 07:02:05;;;;;;;1.20;0.80;;;22.40;57.00;;;;;;5038535;28;20213;-72
2021/09/10 07:04:35;;;;;;;0.67;0.67;;;22.40;56.60;;;;;;5044104;28;20229;-72
2021/09/10 07:07:03;;;;;;;0.77;0.70;;;22.50;56.60;;;;;;5042837;28;20272;-72
2021/09/10 07:09:31;;;;;;;0.70;0.70;;;22.60;56.20;;;;;;5041627;28;20214;-72
2021/09/10 07:11:58;;;;;;;1.23;1.13;;;22.60;56.00;;;;;;5031927;28;20214;-72
2021/09/10 07:14:25;;;;;;;0.40;0.40;;;22.70;55.80;;;;;;5032786;28;20329;-72
2021/09/10 07:16:52;;;;;;;0.77;0.77;;;22.70;55.50;;;;;;5038253;28;20261;-72
2021/09/10 07:19:19;;;;;;;1.20;1.03;;;22.70;54.90;;;;;;5024826;28;20242;-72
2021/09/10 07:21:46;;;;;;;3.43;1.93;;;22.70;54.90;;;;;;5024397;28;20206;-72
2021/09/10 07:24:13;;;;;;;0.97;0.97;;;22.60;54.30;;;;;;5043908;28;20211;-72
2021/09/10 07:26:40;;;;;;;0.83;0.83;;;22.70;54.30;;;;;;5043644;28;20217;-72
2021/09/10 07:29:07;;;;;;;24.53;2.47;;;22.80;54.00;;;;;;5034959;28;20622;-73
2021/09/10 07:31:34;;;;;;;1.33;0.93;;;22.90;53.80;;;;;;5041178;28;20214;-72
2021/09/10 07:34:02;;;;;;;2.93;1.17;;;22.90;53.30;;;;;;5032408;28;20591;-72
2021/09/10 07:36:28;;;;;;;1.87;1.13;;;23.00;53.00;;;;;;5043090;28;20241;-71
2021/09/10 07:38:56;;;;;;;0.37;0.37;;;23.00;52.70;;;;;;5043001;28;20243;-71
2021/09/10 07:41:23;;;;;;;1.70;0.80;;;23.10;52.80;;;;;;5041073;28;20651;-72
2021/09/10 07:43:51;;;;;;;1.43;1.00;;;23.20;52.80;;;;;;5034445;28;20337;-72
2021/09/10 07:46:19;;;;;;;1.13;1.07;;;23.30;52.90;;;;;;5043395;28;20635;-71
2021/09/10 07:48:46;;;;;;;2.07;1.03;;;23.60;52.60;;;;;;5042333;28;20218;-72
2021/09/10 07:51:13;;;;;;;2.83;1.27;;;23.80;52.40;;;;;;5042731;28;20214;-71
2021/09/10 07:53:40;;;;;;;8.80;1.23;;;24.10;52.30;;;;;;5040923;28;20255;-71
2021/09/10 07:56:07;;;;;;;1.43;1.37;;;24.40;51.90;;;;;;5032164;28;20296;-72
2021/09/10 07:58:34;;;;;;;1.37;1.27;;;24.70;51.40;;;;;;5032207;28;20207;-72
2021/09/10 08:01:01;;;;;;;0.60;0.60;;;25.00;51.20;;;;;;5021088;28;20280;-72
2021/09/10 08:03:31;;;;;;;1.17;0.70;;;25.30;50.60;;;;;;5032119;28;20223;-72
2021/09/10 08:05:59;;;;;;;0.40;0.40;;;25.50;50.30;;;;;;5040401;28;20268;-73
2021/09/10 08:08:26;;;;;;;1.90;1.80;;;25.70;50.00;;;;;;5042557;28;20215;-72
2021/09/10 08:10:53;;;;;;;0.50;0.50;;;25.90;49.70;;;;;;5041904;28;20530;-72
2021/09/10 08:13:20;;;;;;;4.07;2.13;;;26.10;49.50;;;;;;5044391;28;20206;-72
2021/09/10 08:15:48;;;;;;;26.10;1.67;;;26.30;49.10;;;;;;5043356;28;20238;-72
2021/09/10 08:18:15;;;;;;;2.20;1.80;;;26.40;49.60;;;;;;5040889;28;20221;-72
2021/09/10 08:20:43;;;;;;;0.87;0.67;;;26.60;48.90;;;;;;5032163;28;20284;-72
2021/09/10 08:23:10;;;;;;;1.07;1.07;;;26.70;48.50;;;;;;5043955;28;20623;-71
2021/09/10 08:25:37;;;;;;;0.97;0.83;;;26.80;48.10;;;;;;5044349;28;20631;-72
2021/09/10 08:28:05;;;;;;;1.30;1.20;;;26.90;48.20;;;;;;5035167;28;20215;-72
2021/09/10 08:30:32;;;;;;;1.30;1.20;;;27.10;48.10;;;;;;5038018;28;20288;-72
2021/09/10 08:32:59;;;;;;;1.20;1.20;;;27.30;47.90;;;;;;5029406;28;20221;-72
2021/09/10 08:35:26;;;;;;;1.13;1.13;;;27.30;46.70;;;;;;5046052;28;20325;-71
2021/09/10 08:37:54;;;;;;;0.70;0.70;;;27.30;47.20;;;;;;5044019;28;20216;-73
2021/09/10 08:40:21;;;;;;;3.47;1.30;;;27.40;48.20;;;;;;5045727;28;20222;-73
2021/09/10 08:42:48;;;;;;;1.63;1.10;;;27.50;47.50;;;;;;5036058;28;20215;-72
2021/09/10 08:45:18;;;;;;;1.17;1.10;;;27.60;46.90;;;;;;5043920;28;20277;-73
2021/09/10 08:47:46;;;;;;;1.43;1.07;;;27.60;47.00;;;;;;5047068;28;20214;-72
2021/09/10 08:50:13;;;;;;;1.53;0.97;;;27.80;47.10;;;;;;5045893;28;20264;-72
2021/09/10 08:52:41;;;;;;;1.07;1.00;;;27.90;46.70;;;;;;5045044;28;20211;-73
2021/09/10 08:55:09;;;;;;;1.30;0.90;;;28.10;46.90;;;;;;5034631;28;20239;-72
2021/09/10 08:57:45;;;;;;;1.47;1.40;;;28.20;46.40;;;;;;5046452;28;20210;-72
2021/09/10 09:00:12;;;;;;;3.40;1.60;;;28.20;45.30;;;;;;5045368;28;20280;-72
2021/09/10 09:02:39;;;;;;;1.90;1.47;;;28.00;45.60;;;;;;5043211;28;20293;-72
2021/09/10 09:05:07;;;;;;;0.50;0.50;;;28.10;45.90;;;;;;5027450;28;20327;-72
2021/09/10 09:07:39;;;;;;;1.40;1.17;;;28.20;45.90;;;;;;5032862;28;20289;-72
2021/09/10 09:10:07;;;;;;;0.60;0.60;;;28.30;45.20;;;;;;5042559;28;20301;-73
2021/09/10 09:12:34;;;;;;;1.47;0.97;;;28.40;45.20;;;;;;5042289;28;20207;-73
2021/09/10 09:15:06;;;;;;;1.93;0.77;;;28.70;45.20;;;;;;5030511;28;20239;-73
2021/09/10 09:17:35;;;;;;;0.80;0.80;;;28.90;44.40;;;;;;5028666;28;20222;-72
2021/09/10 09:20:16;;;;;;;2.57;1.13;;;28.90;44.30;;;;;;5043736;28;20215;-73
2021/09/10 09:22:54;;;;;;;2.80;1.70;;;29.10;44.50;;;;;;5026762;28;20643;-73
2021/09/10 09:25:25;;;;;;;1.97;1.43;;;29.30;44.20;;;;;;5028198;28;20214;-72
2021/09/10 09:27:54;;;;;;;3.30;1.87;;;29.50;43.60;;;;;;5043772;28;20302;-73
2021/09/10 09:30:40;;;;;;;1.77;1.67;;;29.60;43.40;;;;;;5039068;28;20617;-73
2021/09/10 09:33:07;;;;;;;1.63;1.53;;;29.70;43.20;;;;;;5044353;28;20310;-73
2021/09/10 09:35:35;;;;;;;5.27;1.93;;;29.70;43.10;;;;;;5024049;28;20905;-73
2021/09/10 09:38:17;;;;;;;0.90;0.90;;;29.70;43.30;;;;;;5033281;28;20639;-73
2021/09/10 09:40:46;;;;;;;1.10;1.03;;;29.90;43.40;;;;;;5041944;28;20281;-73
2021/09/10 09:43:19;;;;;;;2.30;1.83;;;30.10;43.30;;;;;;5029559;28;20215;-73
2021/09/10 09:45:50;;;;;;;7.37;1.70;;;30.20;42.90;;;;;;5022979;28;20234;-71
2021/09/10 09:48:19;;;;;;;1.00;1.00;;;30.40;42.50;;;;;;5021415;28;20215;-73
2021/09/10 09:50:52;;;;;;;2.63;0.63;;;30.50;42.10;;;;;;5021627;28;20219;-73
2021/09/10 09:53:20;;;;;;;0.90;0.90;;;30.60;42.00;;;;;;5022925;28;20226;-73
2021/09/10 09:55:49;;;;;;;2.17;0.47;;;30.70;41.80;;;;;;5024477;28;20292;-73
2021/09/10 09:58:17;;;;;;;0.60;0.60;;;30.80;41.30;;;;;;5004997;28;20251;-72
2021/09/10 10:00:46;;;;;;;1.73;0.87;;;31.00;41.10;;;;;;5002872;28;20282;-73
2021/09/10 10:03:14;;;;;;;1.43;1.30;;;31.10;40.60;;;;;;5023931;28;20546;-73
2021/09/10 10:06:01;;;;;;;0.50;0.50;;;31.20;40.50;;;;;;5003764;28;20660;-73
2021/09/10 10:08:50;;;;;;;0.63;0.63;;;31.30;40.50;;;;;;5012372;28;20242;-73
2021/09/10 10:11:36;;;;;;;0.63;0.63;;;31.50;40.20;;;;;;5009121;28;20215;-73
2021/09/10 10:14:06;;;;;;;8.20;1.47;;;31.50;39.00;;;;;;5024263;28;20218;-72
2021/09/10 10:16:45;;;;;;;0.40;0.40;;;31.60;38.70;;;;;;5024734;28;20242;-72
2021/09/10 10:19:21;;;;;;;0.77;0.77;;;31.70;38.70;;;;;;5022052;28;20230;-72
2021/09/10 10:21:53;;;;;;;0.83;0.73;;;31.80;38.50;;;;;;5004640;28;20643;-72
2021/09/10 10:24:49;;;;;;;0.70;0.70;;;31.80;37.80;;;;;;5022513;28;20243;-73
2021/09/10 10:27:41;;;;;;;1.30;0.47;;;31.90;37.80;;;;;;5027211;28;20639;-72
2021/09/10 10:30:20;;;;;;;2.20;1.13;;;31.90;37.50;;;;;;5021785;28;20301;-72
2021/09/10 10:32:51;;;;;;;0.87;0.87;;;31.90;37.40;;;;;;5020389;28;20223;-72
2021/09/10 10:35:22;;;;;;;2.30;0.80;;;32.00;37.50;;;;;;5024107;28;20639;-73
2021/09/10 10:37:54;;;;;;;1.00;0.50;;;32.00;36.50;;;;;;5021997;28;20219;-73
2021/09/10 10:40:36;;;;;;;0.80;0.63;;;31.90;36.40;;;;;;5019292;28;20238;-73
2021/09/10 10:43:24;;;;;;;0.93;0.57;;;31.90;36.50;;;;;;5022925;28;20520;-73
2021/09/10 10:45:58;;;;;;;1.00;0.90;;;32.00;36.20;;;;;;5023610;28;20218;-72
2021/09/10 10:48:29;;;;;;;1.53;0.80;;;32.00;36.40;;;;;;5010716;28;20222;-73
2021/09/10 10:51:02;;;;;;;0.93;0.93;;;32.10;36.70;;;;;;5019613;28;20207;-73
2021/09/10 10:53:59;;;;;;;0.53;0.53;;;32.20;36.90;;;;;;5014722;28;20314;-73
2021/09/10 10:56:26;;;;;;;5.07;1.57;;;32.30;36.60;;;;;;5014932;28;20729;-72
2021/09/10 10:59:11;;;;;;;0.50;0.50;;;32.30;36.60;;;;;;5013916;28;20627;-72
2021/09/10 11:02:24;;;;;;;4.20;1.53;;;32.20;36.40;;;;;;5018197;28;20302;-73
2021/09/10 11:05:27;;;;;;;1.63;1.53;;;32.00;35.70;;;;;;5015904;28;20241;-72
2021/09/10 11:07:54;;;;;;;1.60;1.47;;;31.70;36.80;;;;;;4966355;28;20216;-72
2021/09/10 11:10:21;;;;;;;1.60;0.93;;;31.70;36.40;;;;;;5011113;28;20676;-72
2021/09/10 11:12:54;;;;;;;3.33;1.27;;;31.70;36.70;;;;;;5002633;28;20223;-71
2021/09/10 11:15:33;;;;;;;1.33;0.93;;;31.80;37.00;;;;;;5010800;28;20543;-72
2021/09/10 11:18:04;;;;;;;0.40;0.40;;;31.90;36.70;;;;;;4999953;28;20533;-72
2021/09/10 11:20:36;;;;;;;2.37;1.03;;;32.00;36.40;;;;;;5019090;28;20239;-72
2021/09/10 11:23:08;;;;;;;1.10;1.10;;;32.10;36.00;;;;;;5018338;28;20207;-72
2021/09/10 11:25:46;;;;;;;2.00;0.93;;;32.20;35.70;;;;;;5017871;28;20222;-72
2021/09/10 11:28:14;;;;;;;0.50;0.50;;;32.40;35.40;;;;;;5015388;28;20698;-71
2021/09/10 11:30:42;;;;;;;0.97;0.97;;;32.40;34.40;;;;;;5019426;28;20523;-72
2021/09/10 11:33:14;;;;;;;0.47;0.47;;;32.40;34.30;;;;;;5017868;28;20698;-72
2021/09/10 11:35:42;;;;;;;0.30;0.30;;;32.40;34.60;;;;;;5016340;28;20612;-72
2021/09/10 11:38:15;;;;;;;2.67;1.83;;;32.50;34.60;;;;;;5018271;28;20216;-72
2021/09/10 11:40:47;;;;;;;0.27;0.27;;;32.40;34.80;;;;;;5020054;28;20242;-72
2021/09/10 11:43:15;;;;;;;0.40;0.40;;;32.50;34.80;;;;;;5004247;28;20278;-73
2021/09/10 11:45:58;;;;;;;0.87;0.50;;;32.50;34.90;;;;;;5022545;28;20255;-73
2021/09/10 11:48:29;;;;;;;2.00;1.33;;;32.60;34.40;;;;;;5019379;28;20246;-73
2021/09/10 11:50:59;;;;;;;0.40;0.40;;;32.40;34.40;;;;;;5020058;28;20278;-72
2021/09/10 11:53:27;;;;;;;1.17;1.07;;;32.20;34.80;;;;;;5022327;28;20222;-75
2021/09/10 11:56:06;;;;;;;0.60;0.50;;;32.10;35.10;;;;;;5021578;28;20247;-76
2021/09/10 11:58:47;;;;;;;23.00;2.57;;;32.10;34.70;;;;;;5020410;28;20277;-75
2021/09/10 12:01:26;;;;;;;0.30;0.30;;;32.10;34.30;;;;;;5020893;28;20286;-76
2021/09/10 12:03:58;;;;;;;0.80;0.80;;;32.00;34.60;;;;;;5022713;28;20207;-75
2021/09/10 12:06:28;;;;;;;1.87;1.13;;;32.10;34.40;;;;;;5021160;28;20290;-75
2021/09/10 12:09:17;;;;;;;0.53;0.50;;;32.10;34.60;;;;;;5013087;28;20216;-75
2021/09/10 12:12:08;;;;;;;1.53;1.07;;;32.20;34.40;;;;;;5022265;28;20223;-75
2021/09/10 12:14:35;;;;;;;0.90;0.90;;;32.30;34.40;;;;;;5025411;28;20267;-74
2021/09/10 12:17:21;;;;;;;0.50;0.50;;;32.30;33.90;;;;;;5024639;28;20621;-74
2021/09/10 12:20:17;;;;;;;1.97;1.07;;;32.30;34.10;;;;;;5019268;28;20215;-75
2021/09/10 12:22:50;;;;;;;3.20;1.00;;;32.20;33.70;;;;;;5013349;28;20207;-75
2021/09/10 12:25:23;;;;;;;0.97;0.90;;;32.10;34.20;;;;;;5024634;28;20261;-75
2021/09/10 12:28:03;;;;;;;2.30;0.83;;;32.00;33.70;;;;;;5018600;28;20203;-74
2021/09/10 12:30:38;;;;;;;0.80;0.80;;;31.80;33.20;;;;;;5025507;28;20210;-76
2021/09/10 12:33:07;;;;;;;1.43;1.33;;;31.70;33.70;;;;;;5023157;28;20206;-75
2021/09/10 12:35:34;;;;;;;0.83;0.83;;;31.50;34.10;;;;;;5014036;28;20290;-74
2021/09/10 12:38:06;;;;;;;3.60;1.07;;;31.50;34.60;;;;;;5023193;28;20203;-76
2021/09/10 12:40:36;;;;;;;1.10;0.60;;;31.40;34.60;;;;;;5021125;28;20670;-75
2021/09/10 12:43:05;;;;;;;0.30;0.30;;;31.40;34.50;;;;;;5005730;28;20222;-75
2021/09/10 12:45:33;;;;;;;0.87;0.87;;;31.30;33.90;;;;;;5021888;28;20232;-75
2021/09/10 12:48:01;;;;;;;0.53;0.53;;;31.30;33.20;;;;;;5026339;28;20521;-75
2021/09/10 12:50:29;;;;;;;0.60;0.60;;;31.30;34.00;;;;;;5019572;28;20295;-73
2021/09/10 12:52:56;;;;;;;1.97;1.10;;;31.40;34.30;;;;;;5025416;28;20571;-75
2021/09/10 12:55:25;;;;;;;5.30;1.17;;;31.50;34.60;;;;;;5006116;28;20216;-74
2021/09/10 12:57:52;;;;;;;0.73;0.73;;;31.50;34.50;;;;;;5024088;28;20675;-75